All Spectrum Aviation - Van Nuys Airport - KVNY

HOME

Condor Squadron KVNY Webcam

Visit our Electronics Store

Condor Squadron Webcam - Van Nuys Airport - KVNY
Picture taken: Mon, 21 Sep 2020 06:00:42 -0700
YouTube Channel!    Latest Timelapse Movie    Full Size Image    Regular Size Image    

2020/09/21 12:51 KVNY 211251Z AUTO 04003KT 4SM BR OVC004 18/16 A2991 RMK AO2 SLP120 T01780156

HOME

Condor Squadron KVNY Webcam

Visit our Electronics Store